Shana Des Slops — FFZR — position and weather

sailwx.info

Track history (hours):
 
Tides and Currents Weather Stations Pressure Air Temp Water Temp Dewpoint Dewpoint Depression Visibility Wind Speed Wind Dir Waves Ship Positions

Shana Des Slops

Last reported at 2014-Dec-17 22:32 UTC. Time now 2014-Dec-17 23:16 UTC.
Position N 43°24' E 004°60'.

Length 47 m; draft 3.2 m.

Type: Tanker. MMSI: 228003800.

Date/timePositionNaut miles runAvg speedWind from/ knotsBaromVisibWave heightAir tempDewpointWater temp
2014-Dec-17 22:32N 43°24' E 004°60'0 0.0
2014-Dec-17 21:32N 43°24' E 004°60'3 3.0
2014-Dec-17 20:34N 43°24' E 004°56'2 2.2
2014-Dec-17 19:31N 43°25' E 004°53'0 0.0
2014-Dec-17 18:31N 43°25' E 004°53'0 0.0
2014-Dec-17 17:31N 43°25' E 004°53'0 0.0
2014-Dec-17 16:31N 43°25' E 004°53'0 0.0
2014-Dec-17 15:28N 43°25' E 004°53'0 0.1
2014-Dec-17 14:26N 43°25' E 004°53'0 0.0
2014-Dec-17 13:20N 43°25' E 004°53'0 0.0
2014-Dec-17 12:26N 43°25' E 004°53'0 0.0
2014-Dec-17 11:32N 43°25' E 004°53'0 0.0
2014-Dec-17 10:32N 43°25' E 004°53'0 0.0
2014-Dec-17 09:33N 43°25' E 004°53'5 4.9
2014-Dec-17 08:34N 43°24' E 004°60'0 0.0
2014-Dec-17 07:31N 43°24' E 004°60'0 0.0
2014-Dec-17 06:31N 43°24' E 004°60'0 0.0
2014-Dec-17 05:31N 43°24' E 004°60'0 0.0
2014-Dec-17 04:28N 43°24' E 004°60'0 0.0
2014-Dec-17 03:31N 43°24' E 004°60'0 0.0
2014-Dec-17 02:31N 43°24' E 004°60'0 0.0
2014-Dec-17 01:31N 43°24' E 004°60'0 0.0
2014-Dec-17 00:31N 43°24' E 004°60'0 0.0
2014-Dec-16 23:31N 43°24' E 004°60'0 0.0
2014-Dec-16 22:31N 43°24' E 004°60'0 0.0
2014-Dec-16 21:31N 43°24' E 004°60'0 0.0
2014-Dec-16 20:31N 43°24' E 004°60'0 0.0
2014-Dec-16 19:31N 43°24' E 004°60'0 0.0
2014-Dec-16 18:31N 43°24' E 004°60'1 0.6
2014-Dec-16 17:32N 43°24' E 004°59'0 0.0
2014-Dec-16 16:32N 43°24' E 004°59'1 0.6
2014-Dec-16 15:32N 43°24' E 004°60'0 0.0
2014-Dec-16 14:32N 43°24' E 004°60'0 0.0
2014-Dec-16 13:32N 43°24' E 004°60'0 0.0
2014-Dec-16 12:32N 43°24' E 004°60'0 0.0
2014-Dec-16 11:32N 43°24' E 004°60'0 0.0
2014-Dec-16 10:32N 43°24' E 004°60'0 0.0
2014-Dec-16 09:32N 43°24' E 004°60'0 0.0
2014-Dec-16 08:32N 43°24' E 004°60'0 0.0
2014-Dec-16 07:32N 43°24' E 004°60'0 0.0
2014-Dec-16 06:32N 43°24' E 004°60'0 0.0
2014-Dec-16 05:23N 43°24' E 004°60'0 0.0
2014-Dec-16 04:20N 43°24' E 004°60'0 0.0
2014-Dec-16 03:32N 43°24' E 004°60'0 0.0
2014-Dec-16 02:33N 43°24' E 004°60'0 0.0
2014-Dec-16 01:05N 43°24' E 004°60'0 0.0
2014-Dec-15 23:32N 43°24' E 004°60'0 0.0
2014-Dec-15 22:32N 43°24' E 004°60'0 0.0
2014-Dec-15 21:32N 43°24' E 004°60'0 0.0
2014-Dec-15 20:33N 43°24' E 004°60'0 0.0
2014-Dec-15 19:32N 43°24' E 004°60'0 0.0
2014-Dec-15 18:32N 43°24' E 004°60'2 1.8
2014-Dec-15 17:34N 43°23' E 004°58'0 0.0
2014-Dec-15 16:31N 43°23' E 004°58'0 0.0
2014-Dec-15 15:31N 43°23' E 004°58'0 0.0
2014-Dec-15 14:31N 43°23' E 004°58'2 1.8
2014-Dec-15 13:34N 43°24' E 004°60'0 0.1
2014-Dec-15 12:33N 43°24' E 004°60'0 0.0
2014-Dec-15 11:33N 43°24' E 004°60'0 0.0
2014-Dec-15 10:34N 43°24' E 004°60'2 1.8
2014-Dec-15 09:33N 43°24' E 004°58'2 1.6
2014-Dec-15 08:33N 43°24' E 004°56'0 0.0
2014-Dec-15 07:33N 43°24' E 004°56'0 0.0
2014-Dec-15 06:30N 43°24' E 004°56'3 3.2
2014-Dec-15 05:31N 43°24' E 004°60'0 0.0
2014-Dec-15 04:31N 43°24' E 004°60'0 0.0
2014-Dec-15 03:31N 43°24' E 004°60'0 0.0
2014-Dec-15 02:31N 43°24' E 004°60'0 0.0
2014-Dec-15 01:31N 43°24' E 004°60'0 0.0
2014-Dec-15 00:31N 43°24' E 004°60'0 0.0
2014-Dec-14 23:31N 43°24' E 004°60'0 0.0
2014-Dec-14 22:31N 43°24' E 004°60'0 0.0
2014-Dec-14 21:31N 43°24' E 004°60'0 0.0
2014-Dec-14 20:31N 43°24' E 004°60'0 0.0
2014-Dec-14 19:31N 43°24' E 004°60'0 0.0
2014-Dec-14 18:31N 43°24' E 004°60'0 0.0
2014-Dec-14 17:31N 43°24' E 004°60'0 0.0
2014-Dec-14 16:31N 43°24' E 004°60'0 0.0
2014-Dec-14 15:31N 43°24' E 004°60'0 0.0
2014-Dec-14 14:31N 43°24' E 004°60'0 0.0
2014-Dec-14 13:31N 43°24' E 004°60'0 0.0
2014-Dec-14 12:31N 43°24' E 004°60'0 0.0
2014-Dec-14 11:31N 43°24' E 004°60'0 0.0
2014-Dec-14 10:31N 43°24' E 004°60'0 0.0
2014-Dec-14 09:31N 43°24' E 004°60'0 0.0
2014-Dec-14 08:31N 43°24' E 004°60'0 0.0
2014-Dec-14 07:31N 43°24' E 004°60'0 0.0
2014-Dec-14 06:31N 43°24' E 004°60'0 0.0
2014-Dec-14 05:31N 43°24' E 004°60'0 0.0
2014-Dec-14 04:31N 43°24' E 004°60'0 0.0
2014-Dec-14 03:31N 43°24' E 004°60'0 0.0
2014-Dec-14 02:31N 43°24' E 004°60'0 0.0
2014-Dec-14 01:31N 43°24' E 004°60'0 0.0
2014-Dec-14 00:31N 43°24' E 004°60'0 0.0
2014-Dec-13 23:31N 43°24' E 004°60'0 0.0
2014-Dec-13 22:31N 43°24' E 004°60'0 0.0
2014-Dec-13 21:33N 43°24' E 004°60'0 0.0
2014-Dec-13 20:33N 43°24' E 004°60'0 0.0
2014-Dec-13 19:32N 43°24' E 004°60'0 0.0
2014-Dec-13 18:32N 43°24' E 004°60'0 0.0
2014-Dec-13 17:32N 43°24' E 004°60'0 0.0
2014-Dec-13 16:32N 43°24' E 004°60'0 0.0
2014-Dec-13 15:32N 43°24' E 004°60'0 0.0
2014-Dec-13 14:32N 43°24' E 004°60'0 0.0
2014-Dec-13 13:32N 43°24' E 004°60'0 0.0
2014-Dec-13 12:32N 43°24' E 004°60'0 0.0
2014-Dec-13 11:32N 43°24' E 004°60'1 1.5
2014-Dec-13 10:33N 43°23' E 004°58'4 4.4
2014-Dec-13 09:34N 43°26' E 004°53'0 0.0
2014-Dec-13 08:34N 43°26' E 004°53'3 3.2
2014-Dec-13 07:34N 43°24' E 004°57'2 2.2
2014-Dec-13 06:31N 43°24' E 004°60'0 0.0
2014-Dec-13 05:31N 43°24' E 004°60'0 0.0
2014-Dec-13 04:31N 43°24' E 004°60'0 0.0
2014-Dec-13 03:31N 43°24' E 004°60'0 0.0
2014-Dec-13 02:31N 43°24' E 004°60'0 0.0
2014-Dec-13 01:31N 43°24' E 004°60'0 0.0
2014-Dec-13 00:31N 43°24' E 004°60'0 0.0
2014-Dec-12 23:31N 43°24' E 004°60'0 0.0
2014-Dec-12 22:31N 43°24' E 004°60'0 0.0
2014-Dec-12 21:31N 43°24' E 004°60'0 0.0
2014-Dec-12 20:31N 43°24' E 004°60'0 0.0
2014-Dec-12 19:33N 43°24' E 004°60'0 0.0
2014-Dec-12 18:33N 43°24' E 004°60'0 0.0
2014-Dec-12 17:33N 43°24' E 004°60'0 0.0
2014-Dec-12 16:33N 43°24' E 004°60'0 0.0
2014-Dec-12 15:33N 43°24' E 004°60'0 0.0
2014-Dec-12 14:30N 43°24' E 004°60'1 1.1
2014-Dec-12 13:33N 43°23' E 004°59'2 1.7
2014-Dec-12 12:32N 43°22' E 004°59'0 0.0
2014-Dec-12 11:32N 43°22' E 004°59'0 0.1
2014-Dec-12 10:32N 43°22' E 004°59'0 0.0
2014-Dec-12 09:32N 43°22' E 004°59'0 0.0
2014-Dec-12 08:32N 43°22' E 004°59'0 0.0
2014-Dec-12 07:34N 43°22' E 004°59'3 2.5
2014-Dec-12 06:31N 43°24' E 004°60'0 0.0
2014-Dec-12 05:31N 43°24' E 004°60'0 0.0
2014-Dec-12 04:31N 43°24' E 004°60'0 0.0
2014-Dec-12 03:31N 43°24' E 004°60'0 0.0
2014-Dec-12 02:31N 43°24' E 004°60'0 0.0
2014-Dec-12 01:31N 43°24' E 004°60'0 0.0
2014-Dec-12 00:31N 43°24' E 004°60'0 0.0
2014-Dec-11 23:31N 43°24' E 004°60'0 0.0
2014-Dec-11 22:31N 43°24' E 004°60'0 0.0
2014-Dec-11 21:32N 43°24' E 004°60'0 0.0
2014-Dec-11 20:32N 43°24' E 004°60'0 0.0
2014-Dec-11 19:32N 43°24' E 004°60'0 0.0
2014-Dec-11 18:31N 43°24' E 004°60'0 0.0
2014-Dec-11 17:31N 43°24' E 004°60'0 0.0
2014-Dec-11 16:31N 43°24' E 004°60'0 0.2
2014-Dec-11 15:34N 43°24' E 004°60'4 4.4
2014-Dec-11 14:33N 43°25' E 004°54'0 0.0
2014-Dec-11 13:30N 43°25' E 004°54'0 0.0
2014-Dec-11 12:33N 43°25' E 004°54'0 0.0
2014-Dec-11 11:34N 43°25' E 004°54'5 4.6
2014-Dec-11 10:33N 43°24' E 004°60'0 0.0
2014-Dec-11 09:33N 43°24' E 004°60'0 0.0
2014-Dec-11 08:33N 43°24' E 004°60'0 0.0
2014-Dec-11 07:33N 43°24' E 004°60'0 0.0
2014-Dec-11 06:33N 43°24' E 004°60'0 0.0
2014-Dec-11 05:33N 43°24' E 004°60'0 0.0
2014-Dec-11 04:33N 43°24' E 004°60'0 0.0
2014-Dec-11 03:33N 43°24' E 004°60'0 0.0
2014-Dec-11 02:33N 43°24' E 004°60'0 0.0
2014-Dec-11 01:33N 43°24' E 004°60'0 0.0
2014-Dec-11 00:33N 43°24' E 004°60'0 0.0
2014-Dec-10 23:33N 43°24' E 004°60'0 0.0
2014-Dec-10 22:33N 43°24' E 004°60'0 0.0
2014-Dec-10 21:33N 43°24' E 004°60'0 0.0
2014-Dec-10 20:33N 43°24' E 004°60'0 0.0
2014-Dec-10 19:33N 43°24' E 004°60'0 0.0
2014-Dec-10 18:33N 43°24' E 004°60'0 0.0
2014-Dec-10 17:33N 43°24' E 004°60'0 0.0
2014-Dec-10 16:33N 43°24' E 004°60'4 4.3
2014-Dec-10 15:34N 43°20' E 005°01'7 6.8
2014-Dec-10 14:28N 43°18' E 005°10'7 7.9
2014-Dec-10 13:33N 43°21' E 005°19'1 0.5
2014-Dec-10 12:22N 43°21' E 005°20'0 0.0
2014-Dec-10 11:25N 43°21' E 005°20'0 0.0
2014-Dec-10 10:22N 43°21' E 005°20'0 0.0
2014-Dec-10 09:31N 43°21' E 005°20'1 1.3
2014-Dec-10 08:33N 43°20' E 005°18'8 7.5
2014-Dec-10 07:33N 43°17' E 005°09'7 7.3
2014-Dec-10 06:34N 43°20' E 004°60'4 4.0
2014-Dec-10 05:33N 43°24' E 004°60'0 0.0
2014-Dec-10 04:33N 43°24' E 004°60'0 0.0
2014-Dec-10 03:33N 43°24' E 004°60'0 0.0
2014-Dec-10 02:33N 43°24' E 004°60'0 0.0
2014-Dec-10 01:33N 43°24' E 004°60'0 0.0
2014-Dec-10 00:33N 43°24' E 004°60'0 0.0
2014-Dec-09 23:33N 43°24' E 004°60'0 0.0
2014-Dec-09 22:33N 43°24' E 004°60'0 0.0
2014-Dec-09 21:33N 43°24' E 004°60'0 0.0
2014-Dec-09 20:33N 43°24' E 004°60'0 0.0
2014-Dec-09 19:33N 43°24' E 004°60'0 0.0
2014-Dec-09 18:33N 43°24' E 004°60'0 0.0
2014-Dec-09 17:33N 43°24' E 004°60'0 0.0
2014-Dec-09 16:33N 43°24' E 004°60'0 0.0
2014-Dec-09 15:33N 43°24' E 004°60'0 0.0
2014-Dec-09 14:33N 43°24' E 004°60'0 0.0
2014-Dec-09 13:33N 43°24' E 004°60'0 0.0
2014-Dec-09 12:33N 43°24' E 004°60'0 0.0
2014-Dec-09 11:33N 43°24' E 004°60'0 0.0
2014-Dec-09 10:31N 43°24' E 004°60'0 0.0
2014-Dec-09 09:31N 43°24' E 004°60'0 0.0
2014-Dec-09 08:31N 43°24' E 004°60'0 0.0
2014-Dec-09 07:31N 43°24' E 004°60'0 0.0
2014-Dec-09 06:31N 43°24' E 004°60'0 0.0
2014-Dec-09 05:31N 43°24' E 004°60'0 0.0
2014-Dec-09 04:31N 43°24' E 004°60'0 0.0
2014-Dec-09 03:33N 43°24' E 004°60'0 0.0
2014-Dec-09 02:33N 43°24' E 004°60'0 0.0
2014-Dec-09 01:33N 43°24' E 004°60'0 0.0
2014-Dec-09 00:33N 43°24' E 004°60'0 0.0
2014-Dec-08 23:33N 43°24' E 004°60'0 0.0
2014-Dec-08 22:33N 43°24' E 004°60'0 0.0
2014-Dec-08 21:33N 43°24' E 004°60'0 0.0
2014-Dec-08 20:33N 43°24' E 004°60'0 0.0
2014-Dec-08 19:33N 43°24' E 004°60'0 0.0
2014-Dec-08 18:33N 43°24' E 004°60'0 0.0
2014-Dec-08 17:33N 43°24' E 004°60'0 0.0
2014-Dec-08 16:33N 43°24' E 004°60'0 0.0
2014-Dec-08 15:33N 43°24' E 004°60'0 0.0
2014-Dec-08 14:33N 43°24' E 004°60'0 0.0
2014-Dec-08 13:33N 43°24' E 004°60'0 0.0
2014-Dec-08 12:33N 43°24' E 004°60'0 0.0
2014-Dec-08 11:33N 43°24' E 004°60'0 0.0
2014-Dec-08 10:33N 43°24' E 004°60'0 0.0
2014-Dec-08 09:33N 43°24' E 004°60'0 0.0
2014-Dec-08 08:33N 43°24' E 004°60'0 0.0
2014-Dec-08 07:33N 43°24' E 004°60'0 0.0
2014-Dec-08 06:33N 43°24' E 004°60'0 0.0
2014-Dec-08 05:33N 43°24' E 004°60'0 0.0
2014-Dec-08 04:33N 43°24' E 004°60'0 0.0
2014-Dec-08 03:33N 43°24' E 004°60'0 0.0
2014-Dec-08 02:33N 43°24' E 004°60'0 0.0
2014-Dec-08 01:33N 43°24' E 004°60'0 0.0
2014-Dec-08 00:33N 43°24' E 004°60'0 0.0
2014-Dec-07 23:33N 43°24' E 004°60'0 0.0
2014-Dec-07 22:33N 43°24' E 004°60'  
Track history (hours):
 
Tides and Currents Weather Stations Pressure Air Temp Water Temp Dewpoint Dewpoint Depression Visibility Wind Speed Wind Dir Waves Ship Positions

Shana Des Slops

Last reported at 2014-Dec-17 22:32 UTC. Time now 2014-Dec-17 23:16 UTC.
Position N 43°24' E 004°60'.

Length 47 m; draft 3.2 m.

Type: Tanker. MMSI: 228003800.

Date/timePositionNaut miles runAvg speedWind from/ knotsBaromVisibWave heightAir tempDewpointWater temp
2014-Dec-17 22:32N 43°24' E 004°60'0 0.0
2014-Dec-17 21:32N 43°24' E 004°60'3 3.0
2014-Dec-17 20:34N 43°24' E 004°56'2 2.2
2014-Dec-17 19:31N 43°25' E 004°53'0 0.0
2014-Dec-17 18:31N 43°25' E 004°53'0 0.0
2014-Dec-17 17:31N 43°25' E 004°53'0 0.0
2014-Dec-17 16:31N 43°25' E 004°53'0 0.0
2014-Dec-17 15:28N 43°25' E 004°53'0 0.1
2014-Dec-17 14:26N 43°25' E 004°53'0 0.0
2014-Dec-17 13:20N 43°25' E 004°53'0 0.0
2014-Dec-17 12:26N 43°25' E 004°53'0 0.0
2014-Dec-17 11:32N 43°25' E 004°53'0 0.0
2014-Dec-17 10:32N 43°25' E 004°53'0 0.0
2014-Dec-17 09:33N 43°25' E 004°53'5 4.9
2014-Dec-17 08:34N 43°24' E 004°60'0 0.0
2014-Dec-17 07:31N 43°24' E 004°60'0 0.0
2014-Dec-17 06:31N 43°24' E 004°60'0 0.0
2014-Dec-17 05:31N 43°24' E 004°60'0 0.0
2014-Dec-17 04:28N 43°24' E 004°60'0 0.0
2014-Dec-17 03:31N 43°24' E 004°60'0 0.0
2014-Dec-17 02:31N 43°24' E 004°60'0 0.0
2014-Dec-17 01:31N 43°24' E 004°60'0 0.0
2014-Dec-17 00:31N 43°24' E 004°60'0 0.0
2014-Dec-16 23:31N 43°24' E 004°60'0 0.0
2014-Dec-16 22:31N 43°24' E 004°60'0 0.0
2014-Dec-16 21:31N 43°24' E 004°60'0 0.0
2014-Dec-16 20:31N 43°24' E 004°60'0 0.0
2014-Dec-16 19:31N 43°24' E 004°60'0 0.0
2014-Dec-16 18:31N 43°24' E 004°60'1 0.6
2014-Dec-16 17:32N 43°24' E 004°59'0 0.0
2014-Dec-16 16:32N 43°24' E 004°59'1 0.6
2014-Dec-16 15:32N 43°24' E 004°60'0 0.0
2014-Dec-16 14:32N 43°24' E 004°60'0 0.0
2014-Dec-16 13:32N 43°24' E 004°60'0 0.0
2014-Dec-16 12:32N 43°24' E 004°60'0 0.0
2014-Dec-16 11:32N 43°24' E 004°60'0 0.0
2014-Dec-16 10:32N 43°24' E 004°60'0 0.0
2014-Dec-16 09:32N 43°24' E 004°60'0 0.0
2014-Dec-16 08:32N 43°24' E 004°60'0 0.0
2014-Dec-16 07:32N 43°24' E 004°60'0 0.0
2014-Dec-16 06:32N 43°24' E 004°60'0 0.0
2014-Dec-16 05:23N 43°24' E 004°60'0 0.0
2014-Dec-16 04:20N 43°24' E 004°60'0 0.0
2014-Dec-16 03:32N 43°24' E 004°60'0 0.0
2014-Dec-16 02:33N 43°24' E 004°60'0 0.0
2014-Dec-16 01:05N 43°24' E 004°60'0 0.0
2014-Dec-15 23:32N 43°24' E 004°60'0 0.0
2014-Dec-15 22:32N 43°24' E 004°60'0 0.0
2014-Dec-15 21:32N 43°24' E 004°60'0 0.0
2014-Dec-15 20:33N 43°24' E 004°60'0 0.0
2014-Dec-15 19:32N 43°24' E 004°60'0 0.0
2014-Dec-15 18:32N 43°24' E 004°60'2 1.8
2014-Dec-15 17:34N 43°23' E 004°58'0 0.0
2014-Dec-15 16:31N 43°23' E 004°58'0 0.0
2014-Dec-15 15:31N 43°23' E 004°58'0 0.0
2014-Dec-15 14:31N 43°23' E 004°58'2 1.8
2014-Dec-15 13:34N 43°24' E 004°60'0 0.1
2014-Dec-15 12:33N 43°24' E 004°60'0 0.0
2014-Dec-15 11:33N 43°24' E 004°60'0 0.0
2014-Dec-15 10:34N 43°24' E 004°60'2 1.8
2014-Dec-15 09:33N 43°24' E 004°58'2 1.6
2014-Dec-15 08:33N 43°24' E 004°56'0 0.0
2014-Dec-15 07:33N 43°24' E 004°56'0 0.0
2014-Dec-15 06:30N 43°24' E 004°56'3 3.2
2014-Dec-15 05:31N 43°24' E 004°60'0 0.0
2014-Dec-15 04:31N 43°24' E 004°60'0 0.0
2014-Dec-15 03:31N 43°24' E 004°60'0 0.0
2014-Dec-15 02:31N 43°24' E 004°60'0 0.0
2014-Dec-15 01:31N 43°24' E 004°60'0 0.0
2014-Dec-15 00:31N 43°24' E 004°60'0 0.0
2014-Dec-14 23:31N 43°24' E 004°60'0 0.0
2014-Dec-14 22:31N 43°24' E 004°60'0 0.0
2014-Dec-14 21:31N 43°24' E 004°60'0 0.0
2014-Dec-14 20:31N 43°24' E 004°60'0 0.0
2014-Dec-14 19:31N 43°24' E 004°60'0 0.0
2014-Dec-14 18:31N 43°24' E 004°60'0 0.0
2014-Dec-14 17:31N 43°24' E 004°60'0 0.0
2014-Dec-14 16:31N 43°24' E 004°60'0 0.0
2014-Dec-14 15:31N 43°24' E 004°60'0 0.0
2014-Dec-14 14:31N 43°24' E 004°60'0 0.0
2014-Dec-14 13:31N 43°24' E 004°60'0 0.0
2014-Dec-14 12:31N 43°24' E 004°60'0 0.0
2014-Dec-14 11:31N 43°24' E 004°60'0 0.0
2014-Dec-14 10:31N 43°24' E 004°60'0 0.0
2014-Dec-14 09:31N 43°24' E 004°60'0 0.0
2014-Dec-14 08:31N 43°24' E 004°60'0 0.0
2014-Dec-14 07:31N 43°24' E 004°60'0 0.0
2014-Dec-14 06:31N 43°24' E 004°60'0 0.0
2014-Dec-14 05:31N 43°24' E 004°60'0 0.0
2014-Dec-14 04:31N 43°24' E 004°60'0 0.0
2014-Dec-14 03:31N 43°24' E 004°60'0 0.0
2014-Dec-14 02:31N 43°24' E 004°60'0 0.0
2014-Dec-14 01:31N 43°24' E 004°60'0 0.0
2014-Dec-14 00:31N 43°24' E 004°60'0 0.0
2014-Dec-13 23:31N 43°24' E 004°60'0 0.0
2014-Dec-13 22:31N 43°24' E 004°60'0 0.0
2014-Dec-13 21:33N 43°24' E 004°60'0 0.0
2014-Dec-13 20:33N 43°24' E 004°60'0 0.0
2014-Dec-13 19:32N 43°24' E 004°60'0 0.0
2014-Dec-13 18:32N 43°24' E 004°60'0 0.0
2014-Dec-13 17:32N 43°24' E 004°60'0 0.0
2014-Dec-13 16:32N 43°24' E 004°60'0 0.0
2014-Dec-13 15:32N 43°24' E 004°60'0 0.0
2014-Dec-13 14:32N 43°24' E 004°60'0 0.0
2014-Dec-13 13:32N 43°24' E 004°60'0 0.0
2014-Dec-13 12:32N 43°24' E 004°60'0 0.0
2014-Dec-13 11:32N 43°24' E 004°60'1 1.5
2014-Dec-13 10:33N 43°23' E 004°58'4 4.4
2014-Dec-13 09:34N 43°26' E 004°53'0 0.0
2014-Dec-13 08:34N 43°26' E 004°53'3 3.2
2014-Dec-13 07:34N 43°24' E 004°57'2 2.2
2014-Dec-13 06:31N 43°24' E 004°60'0 0.0
2014-Dec-13 05:31N 43°24' E 004°60'0 0.0
2014-Dec-13 04:31N 43°24' E 004°60'0 0.0
2014-Dec-13 03:31N 43°24' E 004°60'0 0.0
2014-Dec-13 02:31N 43°24' E 004°60'0 0.0
2014-Dec-13 01:31N 43°24' E 004°60'0 0.0
2014-Dec-13 00:31N 43°24' E 004°60'0 0.0
2014-Dec-12 23:31N 43°24' E 004°60'0 0.0
2014-Dec-12 22:31N 43°24' E 004°60'0 0.0
2014-Dec-12 21:31N 43°24' E 004°60'0 0.0
2014-Dec-12 20:31N 43°24' E 004°60'0 0.0
2014-Dec-12 19:33N 43°24' E 004°60'0 0.0
2014-Dec-12 18:33N 43°24' E 004°60'0 0.0
2014-Dec-12 17:33N 43°24' E 004°60'0 0.0
2014-Dec-12 16:33N 43°24' E 004°60'0 0.0
2014-Dec-12 15:33N 43°24' E 004°60'0 0.0
2014-Dec-12 14:30N 43°24' E 004°60'1 1.1
2014-Dec-12 13:33N 43°23' E 004°59'2 1.7
2014-Dec-12 12:32N 43°22' E 004°59'0 0.0
2014-Dec-12 11:32N 43°22' E 004°59'0 0.1
2014-Dec-12 10:32N 43°22' E 004°59'0 0.0
2014-Dec-12 09:32N 43°22' E 004°59'0 0.0
2014-Dec-12 08:32N 43°22' E 004°59'0 0.0
2014-Dec-12 07:34N 43°22' E 004°59'3 2.5
2014-Dec-12 06:31N 43°24' E 004°60'0 0.0
2014-Dec-12 05:31N 43°24' E 004°60'0 0.0
2014-Dec-12 04:31N 43°24' E 004°60'0 0.0
2014-Dec-12 03:31N 43°24' E 004°60'0 0.0
2014-Dec-12 02:31N 43°24' E 004°60'0 0.0
2014-Dec-12 01:31N 43°24' E 004°60'0 0.0
2014-Dec-12 00:31N 43°24' E 004°60'0 0.0
2014-Dec-11 23:31N 43°24' E 004°60'0 0.0
2014-Dec-11 22:31N 43°24' E 004°60'0 0.0
2014-Dec-11 21:32N 43°24' E 004°60'0 0.0
2014-Dec-11 20:32N 43°24' E 004°60'0 0.0
2014-Dec-11 19:32N 43°24' E 004°60'0 0.0
2014-Dec-11 18:31N 43°24' E 004°60'0 0.0
2014-Dec-11 17:31N 43°24' E 004°60'0 0.0
2014-Dec-11 16:31N 43°24' E 004°60'0 0.2
2014-Dec-11 15:34N 43°24' E 004°60'4 4.4
2014-Dec-11 14:33N 43°25' E 004°54'0 0.0
2014-Dec-11 13:30N 43°25' E 004°54'0 0.0
2014-Dec-11 12:33N 43°25' E 004°54'0 0.0
2014-Dec-11 11:34N 43°25' E 004°54'5 4.6
2014-Dec-11 10:33N 43°24' E 004°60'0 0.0
2014-Dec-11 09:33N 43°24' E 004°60'0 0.0
2014-Dec-11 08:33N 43°24' E 004°60'0 0.0
2014-Dec-11 07:33N 43°24' E 004°60'0 0.0
2014-Dec-11 06:33N 43°24' E 004°60'0 0.0
2014-Dec-11 05:33N 43°24' E 004°60'0 0.0
2014-Dec-11 04:33N 43°24' E 004°60'0 0.0
2014-Dec-11 03:33N 43°24' E 004°60'0 0.0
2014-Dec-11 02:33N 43°24' E 004°60'0 0.0
2014-Dec-11 01:33N 43°24' E 004°60'0 0.0
2014-Dec-11 00:33N 43°24' E 004°60'0 0.0
2014-Dec-10 23:33N 43°24' E 004°60'0 0.0
2014-Dec-10 22:33N 43°24' E 004°60'0 0.0
2014-Dec-10 21:33N 43°24' E 004°60'0 0.0
2014-Dec-10 20:33N 43°24' E 004°60'0 0.0
2014-Dec-10 19:33N 43°24' E 004°60'0 0.0
2014-Dec-10 18:33N 43°24' E 004°60'0 0.0
2014-Dec-10 17:33N 43°24' E 004°60'0 0.0
2014-Dec-10 16:33N 43°24' E 004°60'4 4.3
2014-Dec-10 15:34N 43°20' E 005°01'7 6.8
2014-Dec-10 14:28N 43°18' E 005°10'7 7.9
2014-Dec-10 13:33N 43°21' E 005°19'1 0.5
2014-Dec-10 12:22N 43°21' E 005°20'0 0.0
2014-Dec-10 11:25N 43°21' E 005°20'0 0.0
2014-Dec-10 10:22N 43°21' E 005°20'0 0.0
2014-Dec-10 09:31N 43°21' E 005°20'1 1.3
2014-Dec-10 08:33N 43°20' E 005°18'8 7.5
2014-Dec-10 07:33N 43°17' E 005°09'7 7.3
2014-Dec-10 06:34N 43°20' E 004°60'4 4.0
2014-Dec-10 05:33N 43°24' E 004°60'0 0.0
2014-Dec-10 04:33N 43°24' E 004°60'0 0.0
2014-Dec-10 03:33N 43°24' E 004°60'0 0.0
2014-Dec-10 02:33N 43°24' E 004°60'0 0.0
2014-Dec-10 01:33N 43°24' E 004°60'0 0.0
2014-Dec-10 00:33N 43°24' E 004°60'0 0.0
2014-Dec-09 23:33N 43°24' E 004°60'0 0.0
2014-Dec-09 22:33N 43°24' E 004°60'0 0.0
2014-Dec-09 21:33N 43°24' E 004°60'0 0.0
2014-Dec-09 20:33N 43°24' E 004°60'0 0.0
2014-Dec-09 19:33N 43°24' E 004°60'0 0.0
2014-Dec-09 18:33N 43°24' E 004°60'0 0.0
2014-Dec-09 17:33N 43°24' E 004°60'0 0.0
2014-Dec-09 16:33N 43°24' E 004°60'0 0.0
2014-Dec-09 15:33N 43°24' E 004°60'0 0.0
2014-Dec-09 14:33N 43°24' E 004°60'0 0.0
2014-Dec-09 13:33N 43°24' E 004°60'0 0.0
2014-Dec-09 12:33N 43°24' E 004°60'0 0.0
2014-Dec-09 11:33N 43°24' E 004°60'0 0.0
2014-Dec-09 10:31N 43°24' E 004°60'0 0.0
2014-Dec-09 09:31N 43°24' E 004°60'0 0.0
2014-Dec-09 08:31N 43°24' E 004°60'0 0.0
2014-Dec-09 07:31N 43°24' E 004°60'0 0.0
2014-Dec-09 06:31N 43°24' E 004°60'0 0.0
2014-Dec-09 05:31N 43°24' E 004°60'0 0.0
2014-Dec-09 04:31N 43°24' E 004°60'0 0.0
2014-Dec-09 03:33N 43°24' E 004°60'0 0.0
2014-Dec-09 02:33N 43°24' E 004°60'0 0.0
2014-Dec-09 01:33N 43°24' E 004°60'0 0.0
2014-Dec-09 00:33N 43°24' E 004°60'0 0.0
2014-Dec-08 23:33N 43°24' E 004°60'0 0.0
2014-Dec-08 22:33N 43°24' E 004°60'0 0.0
2014-Dec-08 21:33N 43°24' E 004°60'0 0.0
2014-Dec-08 20:33N 43°24' E 004°60'0 0.0
2014-Dec-08 19:33N 43°24' E 004°60'0 0.0
2014-Dec-08 18:33N 43°24' E 004°60'0 0.0
2014-Dec-08 17:33N 43°24' E 004°60'0 0.0
2014-Dec-08 16:33N 43°24' E 004°60'0 0.0
2014-Dec-08 15:33N 43°24' E 004°60'0 0.0
2014-Dec-08 14:33N 43°24' E 004°60'0 0.0
2014-Dec-08 13:33N 43°24' E 004°60'0 0.0
2014-Dec-08 12:33N 43°24' E 004°60'0 0.0
2014-Dec-08 11:33N 43°24' E 004°60'0 0.0
2014-Dec-08 10:33N 43°24' E 004°60'0 0.0
2014-Dec-08 09:33N 43°24' E 004°60'0 0.0
2014-Dec-08 08:33N 43°24' E 004°60'0 0.0
2014-Dec-08 07:33N 43°24' E 004°60'0 0.0
2014-Dec-08 06:33N 43°24' E 004°60'0 0.0
2014-Dec-08 05:33N 43°24' E 004°60'0 0.0
2014-Dec-08 04:33N 43°24' E 004°60'0 0.0
2014-Dec-08 03:33N 43°24' E 004°60'0 0.0
2014-Dec-08 02:33N 43°24' E 004°60'0 0.0
2014-Dec-08 01:33N 43°24' E 004°60'0 0.0
2014-Dec-08 00:33N 43°24' E 004°60'0 0.0
2014-Dec-07 23:33N 43°24' E 004°60'0 0.0
2014-Dec-07 22:33N 43°24' E 004°60'  

Dump ship's entire track history